createdAt,value
2019-04-06T00:02:28.525Z,88.30
2019-04-06T00:04:57.236Z,88.50
2019-04-06T00:07:26.000Z,88.10
2019-04-06T00:09:54.712Z,88.50
2019-04-06T00:12:23.559Z,88.10
2019-04-06T00:14:52.451Z,88.20
2019-04-06T00:17:21.215Z,88.40
2019-04-06T00:19:49.996Z,88.10
2019-04-06T00:22:18.620Z,88.50
2019-04-06T00:24:47.447Z,88.30
2019-04-06T00:27:16.453Z,88.10
2019-04-06T00:29:45.192Z,87.40
2019-04-06T00:32:33.344Z,88.70
2019-04-06T00:35:02.145Z,87.10
2019-04-06T00:37:30.885Z,87.40
2019-04-06T00:39:59.536Z,87.10
2019-04-06T00:42:28.186Z,87.00
2019-04-06T00:44:57.023Z,86.60
2019-04-06T00:47:25.755Z,87.10
2019-04-06T00:49:54.515Z,87.00
2019-04-06T00:52:23.231Z,86.90
2019-04-06T00:54:51.920Z,87.20
2019-04-06T00:57:20.988Z,87.20
2019-04-06T00:59:50.414Z,87.30
2019-04-06T01:02:19.295Z,87.80
2019-04-06T01:04:47.979Z,87.80
2019-04-06T01:07:17.899Z,87.80
2019-04-06T01:09:47.072Z,87.70
2019-04-06T01:12:15.868Z,87.60
2019-04-06T01:14:44.560Z,87.80
2019-04-06T01:17:13.180Z,88.00
2019-04-06T01:19:42.900Z,87.90
2019-04-06T01:22:11.677Z,87.60
2019-04-06T01:24:40.378Z,87.70
2019-04-06T01:27:09.568Z,87.60
2019-04-06T01:29:38.340Z,88.40
2019-04-06T01:32:07.032Z,87.80
2019-04-06T01:34:35.805Z,87.70
2019-04-06T01:37:04.646Z,88.30
2019-04-06T01:39:33.295Z,88.70
2019-04-06T01:42:02.004Z,88.90
2019-04-06T01:44:30.700Z,89.00
2019-04-06T01:46:59.468Z,89.00
2019-04-06T01:49:28.183Z,89.20
2019-04-06T01:51:56.877Z,89.90
2019-04-06T01:54:25.588Z,89.30
2019-04-06T01:56:54.320Z,89.70
2019-04-06T01:59:24.212Z,89.40
2019-04-06T02:01:54.548Z,89.30
2019-04-06T02:04:23.307Z,89.10
2019-04-06T02:06:52.153Z,88.70
2019-04-06T02:09:20.796Z,88.90
2019-04-06T02:11:49.453Z,88.80
2019-04-06T02:14:18.173Z,88.80
2019-04-06T02:16:46.952Z,88.80
2019-04-06T02:19:15.709Z,89.30
2019-04-06T02:21:44.469Z,89.50
2019-04-06T02:24:13.154Z,89.50
2019-04-06T02:26:41.907Z,89.80
2019-04-06T02:29:10.606Z,90.10
2019-04-06T02:31:46.714Z,90.10
2019-04-06T02:34:22.779Z,90.10
2019-04-06T02:37:01.722Z,90.10
2019-04-06T02:39:32.130Z,90.10
2019-04-06T02:42:02.539Z,90.20
2019-04-06T02:44:31.157Z,90.40
2019-04-06T02:46:59.852Z,90.40
2019-04-06T02:49:28.605Z,90.60
2019-04-06T02:51:57.364Z,90.70
2019-04-06T02:54:26.106Z,90.80
2019-04-06T02:56:54.733Z,90.90
2019-04-06T02:59:23.525Z,90.80
2019-04-06T03:01:52.332Z,90.70
2019-04-06T03:04:20.953Z,90.90
2019-04-06T03:06:49.707Z,90.70
2019-04-06T03:09:18.414Z,90.40
2019-04-06T03:11:47.034Z,90.40
2019-04-06T03:14:15.720Z,90.40
2019-04-06T03:16:44.473Z,90.40
2019-04-06T03:19:13.229Z,90.30
2019-04-06T03:21:41.930Z,90.20
2019-04-06T03:24:10.724Z,90.30
2019-04-06T03:26:39.417Z,90.40
2019-04-06T03:29:08.166Z,90.20
2019-04-06T03:31:37.213Z,90.50
2019-04-06T03:34:05.999Z,90.30
2019-04-06T03:36:34.781Z,90.50
2019-04-06T03:39:05.367Z,90.30
2019-04-06T03:41:34.132Z,90.10
2019-04-06T03:44:03.043Z,90.40
2019-04-06T03:46:31.637Z,90.30
2019-04-06T03:49:00.247Z,90.30
2019-04-06T03:51:28.943Z,90.40
2019-04-06T03:53:57.695Z,90.40
2019-04-06T03:56:26.703Z,90.50
2019-04-06T03:58:55.420Z,90.50
2019-04-06T04:01:24.321Z,90.40
2019-04-06T04:03:53.364Z,90.10
2019-04-06T04:06:22.196Z,90.20
2019-04-06T04:08:50.898Z,90.20
2019-04-06T04:11:19.585Z,90.10
2019-04-06T04:13:48.285Z,90.00
2019-04-06T04:16:16.957Z,90.00
2019-04-06T04:18:45.696Z,90.00
2019-04-06T04:21:14.345Z,90.10
2019-04-06T04:23:43.140Z,90.20
2019-04-06T04:26:11.908Z,89.20
2019-04-06T04:28:40.609Z,89.10
2019-04-06T04:31:09.354Z,88.90
2019-04-06T04:33:38.090Z,89.10
2019-04-06T04:36:06.909Z,89.00
2019-04-06T04:38:35.486Z,89.20
2019-04-06T04:41:04.219Z,89.40
2019-04-06T04:43:33.198Z,89.10
2019-04-06T04:46:01.902Z,89.40
2019-04-06T04:48:30.589Z,89.00
2019-04-06T04:50:59.275Z,89.10
2019-04-06T04:53:27.889Z,89.30
2019-04-06T04:55:56.969Z,89.90
2019-04-06T04:58:25.647Z,89.70
2019-04-06T05:00:54.274Z,89.90
2019-04-06T05:03:22.954Z,89.80
2019-04-06T05:05:51.640Z,89.40
2019-04-06T05:08:20.393Z,89.70
2019-04-06T05:10:49.013Z,90.10
2019-04-06T05:13:17.698Z,90.10
2019-04-06T05:16:11.085Z,90.00
2019-04-06T05:18:40.845Z,90.00
2019-04-06T05:21:10.408Z,90.00
2019-04-06T05:23:39.172Z,89.80
2019-04-06T05:26:08.925Z,90.00
2019-04-06T05:28:37.668Z,89.80
2019-04-06T05:31:07.157Z,89.60
2019-04-06T05:33:35.927Z,89.60
2019-04-06T05:36:04.883Z,89.40
2019-04-06T05:38:33.485Z,88.70
2019-04-06T05:41:02.437Z,88.90
2019-04-06T05:43:31.133Z,88.50
2019-04-06T05:45:59.778Z,89.00
2019-04-06T05:48:28.517Z,89.00
2019-04-06T05:50:57.206Z,88.70
2019-04-06T05:53:25.900Z,88.60
2019-04-06T05:55:54.595Z,87.90
2019-04-06T05:58:23.364Z,87.80
2019-04-06T06:00:52.117Z,87.40
2019-04-06T06:03:20.807Z,87.50
2019-04-06T06:05:49.651Z,87.40
2019-04-06T06:08:18.301Z,86.90
2019-04-06T06:10:46.994Z,87.20
2019-04-06T06:13:15.682Z,86.90
2019-04-06T06:15:44.427Z,87.00
2019-04-06T06:18:13.222Z,86.00
2019-04-06T06:20:41.915Z,86.00
2019-04-06T06:23:10.660Z,85.80
2019-04-06T06:25:39.359Z,86.00
2019-04-06T06:28:14.465Z,86.40
2019-04-06T06:30:38.515Z,86.30
2019-04-06T06:33:07.183Z,86.30
2019-04-06T06:35:35.882Z,86.70
2019-04-06T06:38:04.868Z,86.50
2019-04-06T06:40:33.631Z,86.90
2019-04-06T06:43:02.246Z,88.10
2019-04-06T06:45:30.936Z,86.90
2019-04-06T06:47:59.558Z,87.10
2019-04-06T06:50:28.408Z,87.10
2019-04-06T06:52:57.101Z,87.20
2019-04-06T06:55:26.932Z,87.10
2019-04-06T06:57:56.131Z,87.10
2019-04-06T07:00:24.944Z,88.00
2019-04-06T07:02:53.649Z,87.80
2019-04-06T07:05:22.334Z,87.60
2019-04-06T07:07:51.035Z,86.90
2019-04-06T07:10:19.780Z,86.70
2019-04-06T07:12:48.475Z,86.60
2019-04-06T07:15:17.223Z,86.50
2019-04-06T07:17:45.930Z,87.10
2019-04-06T07:20:15.083Z,86.70
2019-04-06T07:22:43.812Z,87.10
2019-04-06T07:25:12.619Z,87.40
2019-04-06T07:27:41.181Z,87.10
2019-04-06T07:30:10.151Z,86.80
2019-04-06T07:32:38.905Z,86.90
2019-04-06T07:35:07.775Z,86.80
2019-04-06T07:37:36.592Z,87.10
2019-04-06T07:40:07.607Z,86.70
2019-04-06T07:42:36.301Z,86.40
2019-04-06T07:45:06.622Z,85.20
2019-04-06T07:47:35.231Z,84.20
2019-04-06T07:50:06.661Z,84.40
2019-04-06T07:52:35.609Z,84.80
2019-04-06T07:55:08.208Z,84.90
2019-04-06T07:57:36.969Z,84.50
2019-04-06T08:00:07.226Z,84.20
2019-04-06T08:02:35.990Z,83.60
2019-04-06T08:05:06.105Z,83.80
2019-04-06T08:07:34.838Z,82.30
2019-04-06T08:10:03.681Z,82.60
2019-04-06T08:12:32.368Z,82.40
2019-04-06T08:15:01.121Z,82.40
2019-04-06T08:17:29.848Z,82.10
2019-04-06T08:19:58.477Z,82.50
2019-04-06T08:22:27.240Z,82.30
2019-04-06T08:24:55.918Z,81.70
2019-04-06T08:27:24.672Z,82.40
2019-04-06T08:29:53.363Z,81.80
2019-04-06T08:32:22.060Z,81.80
2019-04-06T08:34:50.806Z,80.90
2019-04-06T08:37:19.586Z,80.70
2019-04-06T08:39:48.348Z,81.30
2019-04-06T08:42:17.237Z,81.60
2019-04-06T08:44:45.902Z,81.10
2019-04-06T08:47:14.656Z,81.30
2019-04-06T08:49:43.292Z,80.80
2019-04-06T08:52:12.326Z,79.40
2019-04-06T08:54:41.061Z,78.30
2019-04-06T08:57:09.813Z,78.50
2019-04-06T08:59:38.509Z,78.20
2019-04-06T09:02:07.361Z,76.40
2019-04-06T09:04:36.062Z,75.60
2019-04-06T09:07:04.975Z,75.80
2019-04-06T09:09:33.811Z,75.50
2019-04-06T09:12:02.387Z,74.90
2019-04-06T09:14:31.113Z,74.40
2019-04-06T09:16:59.879Z,73.90
2019-04-06T09:19:28.679Z,73.50
2019-04-06T09:21:57.285Z,73.20
2019-04-06T09:24:26.031Z,73.70
2019-04-06T09:26:54.934Z,73.30
2019-04-06T09:29:24.617Z,72.50
2019-04-06T09:31:53.840Z,73.90
2019-04-06T09:34:22.593Z,72.70
2019-04-06T09:36:51.593Z,71.00
2019-04-06T09:39:20.264Z,71.80
2019-04-06T09:41:48.894Z,71.60
2019-04-06T09:44:35.340Z,71.30
2019-04-06T09:47:06.955Z,70.90
2019-04-06T09:49:55.263Z,70.00
2019-04-06T09:52:31.185Z,70.10
2019-04-06T09:55:01.505Z,70.30
2019-04-06T09:57:47.841Z,71.20
2019-04-06T10:00:18.574Z,70.70
2019-04-06T10:02:48.910Z,69.70
2019-04-06T10:05:19.289Z,70.10
2019-04-06T10:08:05.591Z,70.50
2019-04-06T10:10:41.774Z,70.80
2019-04-06T10:13:23.949Z,69.70
2019-04-06T10:16:10.382Z,70.00
2019-04-06T10:18:43.340Z,68.20
2019-04-06T10:21:29.855Z,68.00
2019-04-06T10:24:02.985Z,68.30
2019-04-06T10:26:39.207Z,68.60
2019-04-06T10:29:25.397Z,69.30
2019-04-06T10:32:11.819Z,70.00
2019-04-06T10:34:42.239Z,70.30
2019-04-06T10:37:28.444Z,70.40
2019-04-06T10:40:01.434Z,71.10
2019-04-06T10:42:37.403Z,71.20
2019-04-06T10:45:08.570Z,70.80
2019-04-06T10:47:56.577Z,71.80
2019-04-06T10:50:30.589Z,71.40
2019-04-06T10:53:08.715Z,71.00
2019-04-06T10:55:47.757Z,71.70
2019-04-06T10:58:26.662Z,70.90
2019-04-06T11:01:08.599Z,71.40
2019-04-06T11:03:47.636Z,71.00
2019-04-06T11:06:17.890Z,71.20
2019-04-06T11:08:50.821Z,71.30
2019-04-06T11:11:23.893Z,71.40
2019-04-06T11:14:09.037Z,71.00
2019-04-06T11:16:48.335Z,70.60
2019-04-06T11:19:33.444Z,71.30
2019-04-06T11:22:17.098Z,70.80
2019-04-06T11:24:56.268Z,71.60
2019-04-06T11:27:41.570Z,72.00
2019-04-06T11:30:17.697Z,71.70
2019-04-06T11:32:51.396Z,71.10
2019-04-06T11:35:37.537Z,71.50
2019-04-06T11:38:10.554Z,70.90
2019-04-06T11:40:46.612Z,71.40
2019-04-06T11:43:22.742Z,71.30
2019-04-06T11:45:55.809Z,71.50
2019-04-06T11:48:26.125Z,71.20
2019-04-06T11:50:59.193Z,71.70
2019-04-06T11:53:32.137Z,72.00
2019-04-06T11:56:17.369Z,71.90
2019-04-06T11:59:02.654Z,71.50
2019-04-06T12:01:41.997Z,71.10
2019-04-06T12:04:21.088Z,70.70
2019-04-06T12:06:51.433Z,71.30
2019-04-06T12:09:33.652Z,71.80
2019-04-06T12:12:16.081Z,72.10
2019-04-06T12:14:52.394Z,71.30
2019-04-06T12:17:22.669Z,71.40
2019-04-06T12:19:53.023Z,71.30
2019-04-06T12:22:38.008Z,70.90
2019-04-06T12:25:11.808Z,70.80
2019-04-06T12:27:44.760Z,71.10
2019-04-06T12:30:37.274Z,70.90
2019-04-06T12:33:05.827Z,70.10
2019-04-06T12:35:45.225Z,68.80
2019-04-06T12:38:18.153Z,68.30
2019-04-06T12:40:48.553Z,68.50
2019-04-06T12:43:21.411Z,68.50
2019-04-06T12:45:54.301Z,69.00
2019-04-06T12:48:27.373Z,68.10
2019-04-06T12:50:57.743Z,68.60
2019-04-06T12:53:30.729Z,67.70
2019-04-06T12:56:12.956Z,67.40
2019-04-06T12:58:55.210Z,67.30
2019-04-06T13:01:41.905Z,66.30
2019-04-06T13:04:30.322Z,66.10
2019-04-06T13:07:12.964Z,66.00
2019-04-06T13:09:43.353Z,66.30
2019-04-06T13:12:29.581Z,66.30
2019-04-06T13:15:00.246Z,65.60
2019-04-06T13:17:36.063Z,65.90
2019-04-06T13:20:17.383Z,65.30
2019-04-06T13:23:02.697Z,65.80
2019-04-06T13:25:38.793Z,66.40
2019-04-06T13:28:11.817Z,66.40
2019-04-06T13:31:01.230Z,66.80
2019-04-06T13:33:25.456Z,67.20
2019-04-06T13:36:11.884Z,67.80
2019-04-06T13:38:48.116Z,68.30
2019-04-06T13:41:27.706Z,67.80
2019-04-06T13:44:10.863Z,67.60
2019-04-06T13:46:41.769Z,66.30
2019-04-06T13:49:29.924Z,65.90
2019-04-06T13:52:12.246Z,65.20
2019-04-06T13:54:45.095Z,65.00
2019-04-06T13:57:17.951Z,63.60
2019-04-06T13:59:48.338Z,64.00
2019-04-06T14:02:36.410Z,64.30
2019-04-06T14:05:11.062Z,64.40
2019-04-06T14:07:41.371Z,65.00
2019-04-06T14:10:11.969Z,65.70
2019-04-06T14:12:54.537Z,65.10
2019-04-06T14:15:33.889Z,64.80
2019-04-06T14:18:04.355Z,65.30
2019-04-06T14:20:37.241Z,65.80
2019-04-06T14:23:07.960Z,65.40
2019-04-06T14:25:50.081Z,64.80
2019-04-06T14:28:29.648Z,64.70
2019-04-06T14:31:11.960Z,64.50
2019-04-06T14:33:48.310Z,65.50
2019-04-06T14:36:27.378Z,64.90
2019-04-06T14:38:57.722Z,65.10
2019-04-06T14:41:39.769Z,64.90
2019-04-06T14:44:18.692Z,64.20
2019-04-06T14:46:54.835Z,64.20
2019-04-06T14:49:33.035Z,64.10
2019-04-06T14:52:20.858Z,64.70
2019-04-06T14:54:51.199Z,64.70
2019-04-06T14:57:30.539Z,65.50
2019-04-06T15:00:18.760Z,66.60
2019-04-06T15:02:51.769Z,67.20
2019-04-06T15:05:22.105Z,66.60
2019-04-06T15:07:52.415Z,67.00
2019-04-06T15:10:28.668Z,65.80
2019-04-06T15:13:04.571Z,65.40
2019-04-06T15:15:35.167Z,65.00
2019-04-06T15:18:20.608Z,64.20
2019-04-06T15:20:51.022Z,64.10
2019-04-06T15:23:21.427Z,64.10
2019-04-06T15:26:00.493Z,62.90
2019-04-06T15:28:30.865Z,62.90
2019-04-06T15:31:01.181Z,61.80
2019-04-06T15:33:31.515Z,61.80
2019-04-06T15:36:04.910Z,61.60
2019-04-06T15:38:35.282Z,62.00
2019-04-06T15:41:17.246Z,60.90
2019-04-06T15:43:47.616Z,61.40
2019-04-06T15:46:17.950Z,62.70
2019-04-06T15:49:03.020Z,62.50
2019-04-06T15:51:33.359Z,63.30
2019-04-06T15:54:09.611Z,62.80
2019-04-06T15:56:42.562Z,62.20
2019-04-06T15:59:12.962Z,61.30
2019-04-06T16:01:43.285Z,60.90
2019-04-06T16:04:29.441Z,60.90
2019-04-06T16:07:11.627Z,61.50
2019-04-06T16:09:48.114Z,62.00
2019-04-06T16:12:18.965Z,62.90
2019-04-06T16:14:49.628Z,61.60
2019-04-06T16:17:29.021Z,60.90
2019-04-06T16:20:08.201Z,61.60
2019-04-06T16:22:54.344Z,61.70
2019-04-06T16:25:24.867Z,62.20
2019-04-06T16:28:11.394Z,62.80
2019-04-06T16:30:41.803Z,63.60
2019-04-06T16:33:27.228Z,64.30
2019-04-06T16:36:10.335Z,64.30
2019-04-06T16:38:58.450Z,65.40
2019-04-06T16:41:28.854Z,66.00
2019-04-06T16:44:15.585Z,66.40
2019-04-06T16:46:46.176Z,66.80
2019-04-06T16:49:28.318Z,67.80
2019-04-06T16:52:04.481Z,68.40
2019-04-06T16:54:40.581Z,68.90
2019-04-06T16:57:13.507Z,69.30
2019-04-06T16:59:59.801Z,69.70
2019-04-06T17:02:44.845Z,69.80
2019-04-06T17:05:20.736Z,69.40
2019-04-06T17:07:53.686Z,69.60
2019-04-06T17:10:30.065Z,70.40
2019-04-06T17:13:00.618Z,70.40
2019-04-06T17:15:40.107Z,70.70
2019-04-06T17:18:10.362Z,70.70
2019-04-06T17:20:52.458Z,70.40
2019-04-06T17:23:31.753Z,71.10
2019-04-06T17:26:10.994Z,71.80
2019-04-06T17:28:57.663Z,72.00
2019-04-06T17:31:34.601Z,72.40
2019-04-06T17:34:21.139Z,73.00
2019-04-06T17:37:07.416Z,72.90
2019-04-06T17:39:46.377Z,73.00
2019-04-06T17:42:16.768Z,73.60
2019-04-06T17:45:03.165Z,73.70
2019-04-06T17:47:49.664Z,74.30
2019-04-06T17:50:28.764Z,74.70
2019-04-06T17:53:01.855Z,75.20
2019-04-06T17:55:34.766Z,75.80
2019-04-06T17:58:14.179Z,75.70
2019-04-06T18:00:59.481Z,76.10
2019-04-06T18:03:45.857Z,76.00
2019-04-06T18:06:25.153Z,76.00
2019-04-06T18:08:58.053Z,76.10
2019-04-06T18:11:28.360Z,76.20
2019-04-06T18:13:58.570Z,76.40
2019-04-06T18:16:29.051Z,76.40
2019-04-06T18:18:57.753Z,76.60
2019-04-06T18:21:26.320Z,77.00
2019-04-06T18:23:57.532Z,77.20
2019-04-06T18:26:26.303Z,77.40
2019-04-06T18:28:55.115Z,77.10
2019-04-06T18:31:31.354Z,77.20
2019-04-06T18:34:00.152Z,77.60
2019-04-06T18:36:30.469Z,78.10
2019-04-06T18:39:00.855Z,77.90
2019-04-06T18:41:29.484Z,78.10
2019-04-06T18:43:58.240Z,78.10
2019-04-06T18:46:27.375Z,78.20
2019-04-06T18:48:56.681Z,77.90
2019-04-06T18:51:25.353Z,77.80
2019-04-06T18:53:54.040Z,77.90
2019-04-06T18:56:22.780Z,78.30
2019-04-06T18:58:51.549Z,78.40
2019-04-06T19:01:20.981Z,78.60
2019-04-06T19:03:49.756Z,78.80
2019-04-06T19:06:19.003Z,78.90
2019-04-06T19:08:47.641Z,79.10
2019-04-06T19:11:16.449Z,79.10
2019-04-06T19:13:45.532Z,78.90
2019-04-06T19:16:16.058Z,78.50
2019-04-06T19:18:44.599Z,78.60
2019-04-06T19:21:13.956Z,78.90
2019-04-06T19:23:42.793Z,79.00
2019-04-06T19:26:11.463Z,78.90
2019-04-06T19:28:40.436Z,78.80
2019-04-06T19:31:09.193Z,78.60
2019-04-06T19:33:37.903Z,78.50
2019-04-06T19:36:08.686Z,78.60
2019-04-06T19:38:37.371Z,78.50
2019-04-06T19:41:06.323Z,78.70
2019-04-06T19:43:35.049Z,78.80
2019-04-06T19:46:04.381Z,79.10
2019-04-06T19:48:33.111Z,78.70
2019-04-06T19:51:01.984Z,78.60
2019-04-06T19:53:31.748Z,79.00
2019-04-06T19:56:09.238Z,79.30
2019-04-06T19:58:38.075Z,79.60
2019-04-06T20:01:06.913Z,79.80
2019-04-06T20:03:37.989Z,79.80
2019-04-06T20:06:05.969Z,80.20
2019-04-06T20:08:34.657Z,80.10
2019-04-06T20:11:03.649Z,79.90
2019-04-06T20:13:32.417Z,80.00
2019-04-06T20:16:01.363Z,80.50
2019-04-06T20:18:30.129Z,79.70
2019-04-06T20:20:58.861Z,79.70
2019-04-06T20:23:27.473Z,79.80
2019-04-06T20:25:56.731Z,79.80
2019-04-06T20:28:25.482Z,80.00
2019-04-06T20:30:54.490Z,80.00
2019-04-06T20:33:23.223Z,80.40
2019-04-06T20:35:52.115Z,80.80
2019-04-06T20:38:20.857Z,80.90
2019-04-06T20:40:49.514Z,81.20
2019-04-06T20:43:18.532Z,81.60
2019-04-06T20:45:47.163Z,82.00
2019-04-06T20:48:15.815Z,82.30
2019-04-06T20:50:45.074Z,82.20
2019-04-06T20:53:13.792Z,82.30
2019-04-06T20:55:42.418Z,82.70
2019-04-06T20:58:11.027Z,82.80
2019-04-06T21:00:39.816Z,83.10
2019-04-06T21:03:08.680Z,83.30
2019-04-06T21:05:38.275Z,83.70
2019-04-06T21:08:07.073Z,84.10
2019-04-06T21:10:36.255Z,84.60
2019-04-06T21:13:06.921Z,85.00
2019-04-06T21:15:35.745Z,85.40
2019-04-06T21:18:04.428Z,85.70
2019-04-06T21:20:33.162Z,85.70
2019-04-06T21:23:01.966Z,85.80
2019-04-06T21:25:31.051Z,85.90
2019-04-06T21:27:59.958Z,86.40
2019-04-06T21:30:28.801Z,86.40
2019-04-06T21:32:57.797Z,86.50
2019-04-06T21:35:26.930Z,86.40
2019-04-06T21:37:55.955Z,86.20
2019-04-06T21:40:25.072Z,86.10
2019-04-06T21:42:53.965Z,85.90
2019-04-06T21:45:23.536Z,86.10
2019-04-06T21:47:52.997Z,86.40
2019-04-06T21:50:21.904Z,86.70
2019-04-06T21:52:50.788Z,86.80
2019-04-06T21:55:19.568Z,86.70
2019-04-06T21:57:48.311Z,86.70
2019-04-06T22:00:35.627Z,86.40
2019-04-06T22:03:04.494Z,86.70
2019-04-06T22:05:33.197Z,86.70
2019-04-06T22:08:02.627Z,86.80
2019-04-06T22:10:31.503Z,86.90
2019-04-06T22:13:00.269Z,87.20
2019-04-06T22:15:29.445Z,87.00
2019-04-06T22:17:58.254Z,86.80
2019-04-06T22:20:28.052Z,87.00
2019-04-06T22:22:57.325Z,86.80
2019-04-06T22:25:26.071Z,87.10
2019-04-06T22:27:55.051Z,87.10
2019-04-06T22:30:43.314Z,86.70
2019-04-06T22:33:11.984Z,86.30
2019-04-06T22:35:40.768Z,85.70
2019-04-06T22:38:09.444Z,85.60
2019-04-06T22:40:38.135Z,85.70
2019-04-06T22:43:06.917Z,86.00
2019-04-06T22:45:37.920Z,86.20
2019-04-06T22:48:06.937Z,86.40
2019-04-06T22:50:36.015Z,86.20
2019-04-06T22:53:05.313Z,86.30
2019-04-06T22:55:34.541Z,86.00
2019-04-06T22:58:03.660Z,85.60
2019-04-06T23:00:43.083Z,85.50
2019-04-06T23:03:22.047Z,85.90
2019-04-06T23:06:08.543Z,85.70
2019-04-06T23:08:37.431Z,85.30
2019-04-06T23:11:06.388Z,85.50
2019-04-06T23:13:37.416Z,85.50
2019-04-06T23:16:06.831Z,85.30
2019-04-06T23:18:35.511Z,85.20
2019-04-06T23:21:04.300Z,85.20
2019-04-06T23:23:34.125Z,85.00
2019-04-06T23:26:02.903Z,85.00
2019-04-06T23:28:31.895Z,85.10
2019-04-06T23:31:00.592Z,85.10
2019-04-06T23:33:29.300Z,85.80
2019-04-06T23:35:58.503Z,85.20
2019-04-06T23:38:27.362Z,85.10
2019-04-06T23:40:56.102Z,85.30
2019-04-06T23:43:24.805Z,85.70
2019-04-06T23:45:53.693Z,86.00
2019-04-06T23:48:22.369Z,86.10
2019-04-06T23:50:51.631Z,86.30
2019-04-06T23:53:20.428Z,86.10
2019-04-06T23:55:49.193Z,86.20
2019-04-06T23:58:17.876Z,85.90
